Richelieu, Canada
Current Conditions -  °F | °C
As of 11:00 AM on Sunday 25 Jan 2015 (Local Time) from CYND Reporting Station
Blowing Snow Blowing Snow  
Wind Chill: -11°   Ceiling: Unl
Heat Index:   Visibility: 15mi
Dew Point: -4°   Wind: 12mph
Humidity: 66%   Direction: 300°WNW
Pressure: 29.89"   Gusts: NA
Location:  45.45°N, 75.25°W
Report Text: CYND 251600Z 30010KT 15SM DRSN SCT022 M15/M20 A2989 RMK SC3 SLP125
Loading
Personal Weather Stations






























Interactive Weather Map New forecast layout! Learn more

10-Day Weather Forecast

Advertisements
Track Severe Weather on mobile